sensor_id;sensor_type;location;lat;lon;timestamp;temperature;humidity
14014;DHT22;49110;52.584;13.408;2023-04-24T00:00:46;13.90;99.90
14014;DHT22;49110;52.584;13.408;2023-04-24T00:01:47;13.90;99.90
14014;DHT22;49110;52.584;13.408;2023-04-24T00:02:47;13.90;99.90
14014;DHT22;49110;52.584;13.408;2023-04-24T00:03:48;13.90;99.90
14014;DHT22;49110;52.584;13.408;2023-04-24T00:04:48;13.80;99.90
14014;DHT22;49110;52.584;13.408;2023-04-24T00:05:49;13.80;99.90
14014;DHT22;49110;52.584;13.408;2023-04-24T00:06:50;13.80;99.90
14014;DHT22;49110;52.584;13.408;2023-04-24T00:07:54;13.80;99.90
14014;DHT22;49110;52.584;13.408;2023-04-24T00:09:01;13.80;99.90
14014;DHT22;49110;52.584;13.408;2023-04-24T00:10:02;13.80;99.90
14014;DHT22;49110;52.584;13.408;2023-04-24T00:11:03;13.90;99.90
14014;DHT22;49110;52.584;13.408;2023-04-24T00:12:04;13.80;99.90
14014;DHT22;49110;52.584;13.408;2023-04-24T00:13:05;13.80;99.90
14014;DHT22;49110;52.584;13.408;2023-04-24T00:14:05;13.80;99.90
14014;DHT22;49110;52.584;13.408;2023-04-24T00:15:06;13.80;99.90
14014;DHT22;49110;52.584;13.408;2023-04-24T00:16:07;13.80;99.90
14014;DHT22;49110;52.584;13.408;2023-04-24T00:17:07;13.80;99.90
14014;DHT22;49110;52.584;13.408;2023-04-24T00:18:08;13.80;99.90
14014;DHT22;49110;52.584;13.408;2023-04-24T00:19:08;13.80;99.90
14014;DHT22;49110;52.584;13.408;2023-04-24T00:20:09;13.80;99.90
14014;DHT22;49110;52.584;13.408;2023-04-24T00:21:11;13.70;99.90
14014;DHT22;49110;52.584;13.408;2023-04-24T00:22:11;13.70;99.90
14014;DHT22;49110;52.584;13.408;2023-04-24T00:23:13;13.70;99.90
14014;DHT22;49110;52.584;13.408;2023-04-24T00:24:14;13.70;99.90
14014;DHT22;49110;52.584;13.408;2023-04-24T00:25:14;13.70;99.90
14014;DHT22;49110;52.584;13.408;2023-04-24T00:26:14;13.70;99.90
14014;DHT22;49110;52.584;13.408;2023-04-24T00:27:15;13.70;99.90
14014;DHT22;49110;52.584;13.408;2023-04-24T00:28:15;13.80;99.90
14014;DHT22;49110;52.584;13.408;2023-04-24T00:29:16;13.80;99.90
14014;DHT22;49110;52.584;13.408;2023-04-24T00:30:16;13.70;99.90
14014;DHT22;49110;52.584;13.408;2023-04-24T00:31:17;13.70;99.90
14014;DHT22;49110;52.584;13.408;2023-04-24T00:32:18;13.70;99.90
14014;DHT22;49110;52.584;13.408;2023-04-24T00:33:19;13.70;99.90
14014;DHT22;49110;52.584;13.408;2023-04-24T00:34:19;13.70;99.90
14014;DHT22;49110;52.584;13.408;2023-04-24T00:35:20;13.70;99.90
14014;DHT22;49110;52.584;13.408;2023-04-24T00:36:20;13.70;99.90
14014;DHT22;49110;52.584;13.408;2023-04-24T00:37:21;13.70;99.90
14014;DHT22;49110;52.584;13.408;2023-04-24T00:38:21;13.80;99.90
14014;DHT22;49110;52.584;13.408;2023-04-24T00:39:23;13.70;99.90
14014;DHT22;49110;52.584;13.408;2023-04-24T00:40:23;13.80;99.90
14014;DHT22;49110;52.584;13.408;2023-04-24T00:41:26;13.80;99.90
14014;DHT22;49110;52.584;13.408;2023-04-24T00:42:27;13.80;99.90
14014;DHT22;49110;52.584;13.408;2023-04-24T00:43:27;13.80;99.90
14014;DHT22;49110;52.584;13.408;2023-04-24T00:44:28;13.80;99.90
14014;DHT22;49110;52.584;13.408;2023-04-24T00:45:29;13.80;99.90
14014;DHT22;49110;52.584;13.408;2023-04-24T00:46:31;13.90;99.90
14014;DHT22;49110;52.584;13.408;2023-04-24T00:47:33;13.80;99.90
14014;DHT22;49110;52.584;13.408;2023-04-24T00:48:34;13.90;99.90
14014;DHT22;49110;52.584;13.408;2023-04-24T00:49:34;13.80;99.90
14014;DHT22;49110;52.584;13.408;2023-04-24T00:50:38;13.90;99.90
14014;DHT22;49110;52.584;13.408;2023-04-24T00:51:39;13.80;99.90
14014;DHT22;49110;52.584;13.408;2023-04-24T00:52:40;13.80;99.90
14014;DHT22;49110;52.584;13.408;2023-04-24T00:53:41;13.80;99.90
14014;DHT22;49110;52.584;13.408;2023-04-24T00:54:41;13.80;99.90
14014;DHT22;49110;52.584;13.408;2023-04-24T00:55:42;13.80;99.90
14014;DHT22;49110;52.584;13.408;2023-04-24T00:56:44;13.80;99.90
14014;DHT22;49110;52.584;13.408;2023-04-24T00:57:45;13.80;99.90
14014;DHT22;49110;52.584;13.408;2023-04-24T00:58:47;13.80;99.90
14014;DHT22;49110;52.584;13.408;2023-04-24T00:59:47;13.80;99.90
14014;DHT22;49110;52.584;13.408;2023-04-24T01:00:49;13.80;99.90
14014;DHT22;49110;52.584;13.408;2023-04-24T01:01:53;13.80;99.90
14014;DHT22;49110;52.584;13.408;2023-04-24T01:02:54;13.90;99.90
14014;DHT22;49110;52.584;13.408;2023-04-24T01:03:56;13.80;99.90
14014;DHT22;49110;52.584;13.408;2023-04-24T01:04:57;13.70;99.90
14014;DHT22;49110;52.584;13.408;2023-04-24T01:05:58;13.70;99.90
14014;DHT22;49110;52.584;13.408;2023-04-24T01:06:59;13.80;99.90
14014;DHT22;49110;52.584;13.408;2023-04-24T01:08:01;13.70;99.90
14014;DHT22;49110;52.584;13.408;2023-04-24T01:09:02;13.70;99.90
14014;DHT22;49110;52.584;13.408;2023-04-24T01:10:03;13.80;99.90
14014;DHT22;49110;52.584;13.408;2023-04-24T01:11:04;13.80;99.90
14014;DHT22;49110;52.584;13.408;2023-04-24T01:12:05;13.80;99.90
14014;DHT22;49110;52.584;13.408;2023-04-24T01:13:07;13.80;99.90
14014;DHT22;49110;52.584;13.408;2023-04-24T01:14:08;13.90;99.90
14014;DHT22;49110;52.584;13.408;2023-04-24T01:15:10;13.90;99.90
14014;DHT22;49110;52.584;13.408;2023-04-24T01:16:10;13.90;99.90
14014;DHT22;49110;52.584;13.408;2023-04-24T01:17:11;13.90;99.90
14014;DHT22;49110;52.584;13.408;2023-04-24T01:18:12;13.80;99.90
14014;DHT22;49110;52.584;13.408;2023-04-24T01:19:14;13.90;99.90
14014;DHT22;49110;52.584;13.408;2023-04-24T01:20:15;13.90;99.90
14014;DHT22;49110;52.584;13.408;2023-04-24T01:21:16;13.90;99.90
14014;DHT22;49110;52.584;13.408;2023-04-24T01:22:18;13.90;99.90
14014;DHT22;49110;52.584;13.408;2023-04-24T01:23:19;13.90;99.90
14014;DHT22;49110;52.584;13.408;2023-04-24T01:24:19;13.90;99.90
14014;DHT22;49110;52.584;13.408;2023-04-24T01:25:20;13.90;99.90
14014;DHT22;49110;52.584;13.408;2023-04-24T01:26:20;13.90;99.90
14014;DHT22;49110;52.584;13.408;2023-04-24T01:27:21;13.90;99.90
14014;DHT22;49110;52.584;13.408;2023-04-24T01:28:22;13.90;99.90
14014;DHT22;49110;52.584;13.408;2023-04-24T01:29:22;13.90;99.90
14014;DHT22;49110;52.584;13.408;2023-04-24T01:30:24;13.90;99.90
14014;DHT22;49110;52.584;13.408;2023-04-24T01:31:25;13.90;99.90
14014;DHT22;49110;52.584;13.408;2023-04-24T01:32:26;13.90;99.90
14014;DHT22;49110;52.584;13.408;2023-04-24T01:33:27;14.00;99.90
14014;DHT22;49110;52.584;13.408;2023-04-24T01:34:28;13.90;99.90
14014;DHT22;49110;52.584;13.408;2023-04-24T01:35:28;13.90;99.90
14014;DHT22;49110;52.584;13.408;2023-04-24T01:36:30;14.00;99.90
14014;DHT22;49110;52.584;13.408;2023-04-24T01:37:31;14.00;99.90
14014;DHT22;49110;52.584;13.408;2023-04-24T01:38:33;14.00;99.90
14014;DHT22;49110;52.584;13.408;2023-04-24T01:39:33;14.00;99.90
14014;DHT22;49110;52.584;13.408;2023-04-24T01:40:34;14.00;99.90
14014;DHT22;49110;52.584;13.408;2023-04-24T01:41:35;14.10;99.90
14014;DHT22;49110;52.584;13.408;2023-04-24T01:42:36;14.10;99.90
14014;DHT22;49110;52.584;13.408;2023-04-24T01:43:36;14.00;99.90
14014;DHT22;49110;52.584;13.408;2023-04-24T01:44:37;13.90;99.90
14014;DHT22;49110;52.584;13.408;2023-04-24T01:45:38;14.00;99.90
14014;DHT22;49110;52.584;13.408;2023-04-24T01:46:38;13.90;99.90
14014;DHT22;49110;52.584;13.408;2023-04-24T01:47:39;14.00;99.90
14014;DHT22;49110;52.584;13.408;2023-04-24T01:48:40;14.00;99.90
14014;DHT22;49110;52.584;13.408;2023-04-24T01:49:41;14.00;99.90
14014;DHT22;49110;52.584;13.408;2023-04-24T01:50:42;13.90;99.90
14014;DHT22;49110;52.584;13.408;2023-04-24T01:51:42;14.00;99.90
14014;DHT22;49110;52.584;13.408;2023-04-24T01:52:43;14.00;99.90
14014;DHT22;49110;52.584;13.408;2023-04-24T01:53:43;14.00;99.90
14014;DHT22;49110;52.584;13.408;2023-04-24T01:54:44;14.10;99.90
14014;DHT22;49110;52.584;13.408;2023-04-24T01:55:45;14.00;99.90
14014;DHT22;49110;52.584;13.408;2023-04-24T01:56:45;14.00;99.90
14014;DHT22;49110;52.584;13.408;2023-04-24T01:57:46;14.10;99.90
14014;DHT22;49110;52.584;13.408;2023-04-24T01:58:47;14.10;99.90
14014;DHT22;49110;52.584;13.408;2023-04-24T01:59:47;14.00;99.90
14014;DHT22;49110;52.584;13.408;2023-04-24T02:00:48;14.00;99.90
14014;DHT22;49110;52.584;13.408;2023-04-24T02:01:48;14.00;99.90
14014;DHT22;49110;52.584;13.408;2023-04-24T02:02:49;14.00;99.90
14014;DHT22;49110;52.584;13.408;2023-04-24T02:03:50;14.10;99.90
14014;DHT22;49110;52.584;13.408;2023-04-24T02:04:50;14.10;99.90
14014;DHT22;49110;52.584;13.408;2023-04-24T02:05:51;14.10;99.90
14014;DHT22;49110;52.584;13.408;2023-04-24T02:06:51;14.10;99.90
14014;DHT22;49110;52.584;13.408;2023-04-24T02:07:52;14.10;99.90
14014;DHT22;49110;52.584;13.408;2023-04-24T02:08:53;14.20;99.90
14014;DHT22;49110;52.584;13.408;2023-04-24T02:09:53;14.10;99.90
14014;DHT22;49110;52.584;13.408;2023-04-24T02:10:54;14.10;99.90
14014;DHT22;49110;52.584;13.408;2023-04-24T02:11:54;14.10;99.90
14014;DHT22;49110;52.584;13.408;2023-04-24T02:12:54;14.10;99.90
14014;DHT22;49110;52.584;13.408;2023-04-24T02:13:56;14.10;99.90
14014;DHT22;49110;52.584;13.408;2023-04-24T02:14:56;14.10;99.90
14014;DHT22;49110;52.584;13.408;2023-04-24T02:15:58;14.10;99.90
14014;DHT22;49110;52.584;13.408;2023-04-24T02:16:59;14.00;99.90
14014;DHT22;49110;52.584;13.408;2023-04-24T02:18:00;14.00;99.90
14014;DHT22;49110;52.584;13.408;2023-04-24T02:19:02;13.90;99.90
14014;DHT22;49110;52.584;13.408;2023-04-24T02:20:03;13.90;99.90
14014;DHT22;49110;52.584;13.408;2023-04-24T02:21:04;13.90;99.90
14014;DHT22;49110;52.584;13.408;2023-04-24T02:22:05;13.90;99.90
14014;DHT22;49110;52.584;13.408;2023-04-24T02:23:06;13.90;99.90
14014;DHT22;49110;52.584;13.408;2023-04-24T02:24:06;13.90;99.90
14014;DHT22;49110;52.584;13.408;2023-04-24T02:25:07;13.90;99.90
14014;DHT22;49110;52.584;13.408;2023-04-24T02:26:08;13.90;99.90
14014;DHT22;49110;52.584;13.408;2023-04-24T02:27:08;13.80;99.90
14014;DHT22;49110;52.584;13.408;2023-04-24T02:28:09;13.90;99.90
14014;DHT22;49110;52.584;13.408;2023-04-24T02:29:10;13.90;99.90
14014;DHT22;49110;52.584;13.408;2023-04-24T02:30:11;13.90;99.90
14014;DHT22;49110;52.584;13.408;2023-04-24T02:31:11;13.90;99.90
14014;DHT22;49110;52.584;13.408;2023-04-24T02:32:12;13.90;99.90
14014;DHT22;49110;52.584;13.408;2023-04-24T02:33:12;13.90;99.90
14014;DHT22;49110;52.584;13.408;2023-04-24T02:34:13;13.90;99.90
14014;DHT22;49110;52.584;13.408;2023-04-24T02:35:13;13.90;99.90
14014;DHT22;49110;52.584;13.408;2023-04-24T02:36:14;13.90;99.90
14014;DHT22;49110;52.584;13.408;2023-04-24T02:37:15;13.90;99.90
14014;DHT22;49110;52.584;13.408;2023-04-24T02:38:15;13.90;99.90
14014;DHT22;49110;52.584;13.408;2023-04-24T02:39:15;13.90;99.90
14014;DHT22;49110;52.584;13.408;2023-04-24T02:40:19;13.90;99.90
14014;DHT22;49110;52.584;13.408;2023-04-24T02:41:19;13.90;99.90
14014;DHT22;49110;52.584;13.408;2023-04-24T02:42:20;13.90;99.90
14014;DHT22;49110;52.584;13.408;2023-04-24T02:43:21;13.90;99.90
14014;DHT22;49110;52.584;13.408;2023-04-24T02:44:21;14.00;99.90
14014;DHT22;49110;52.584;13.408;2023-04-24T02:45:22;13.90;99.90
14014;DHT22;49110;52.584;13.408;2023-04-24T02:46:23;14.00;99.90
14014;DHT22;49110;52.584;13.408;2023-04-24T02:47:23;14.00;99.90
14014;DHT22;49110;52.584;13.408;2023-04-24T02:48:24;14.00;99.90
14014;DHT22;49110;52.584;13.408;2023-04-24T02:49:24;13.90;99.90
14014;DHT22;49110;52.584;13.408;2023-04-24T02:50:26;13.90;99.90
14014;DHT22;49110;52.584;13.408;2023-04-24T02:51:26;13.90;99.90
14014;DHT22;49110;52.584;13.408;2023-04-24T02:52:27;14.00;99.90
14014;DHT22;49110;52.584;13.408;2023-04-24T02:53:27;13.90;99.90
14014;DHT22;49110;52.584;13.408;2023-04-24T02:54:30;13.90;99.90
14014;DHT22;49110;52.584;13.408;2023-04-24T02:55:30;13.90;99.90
14014;DHT22;49110;52.584;13.408;2023-04-24T02:56:31;13.90;99.90
14014;DHT22;49110;52.584;13.408;2023-04-24T02:57:31;13.90;99.90
14014;DHT22;49110;52.584;13.408;2023-04-24T02:58:31;13.90;99.90
14014;DHT22;49110;52.584;13.408;2023-04-24T02:59:32;13.90;99.90
14014;DHT22;49110;52.584;13.408;2023-04-24T03:00:34;13.90;99.90
14014;DHT22;49110;52.584;13.408;2023-04-24T03:01:34;13.90;99.90
14014;DHT22;49110;52.584;13.408;2023-04-24T03:02:35;13.90;99.90
14014;DHT22;49110;52.584;13.408;2023-04-24T03:03:37;13.90;99.90
14014;DHT22;49110;52.584;13.408;2023-04-24T03:04:37;13.90;99.90
14014;DHT22;49110;52.584;13.408;2023-04-24T03:05:38;13.90;99.90
14014;DHT22;49110;52.584;13.408;2023-04-24T03:06:38;13.90;99.90
14014;DHT22;49110;52.584;13.408;2023-04-24T03:07:39;13.90;99.90
14014;DHT22;49110;52.584;13.408;2023-04-24T03:08:39;13.90;99.90
14014;DHT22;49110;52.584;13.408;2023-04-24T03:09:40;13.90;99.90
14014;DHT22;49110;52.584;13.408;2023-04-24T03:10:41;13.90;99.90
14014;DHT22;49110;52.584;13.408;2023-04-24T03:11:41;13.90;99.90
14014;DHT22;49110;52.584;13.408;2023-04-24T03:12:41;13.90;99.90
14014;DHT22;49110;52.584;13.408;2023-04-24T03:13:42;13.90;99.90
14014;DHT22;49110;52.584;13.408;2023-04-24T03:14:42;13.90;99.90
14014;DHT22;49110;52.584;13.408;2023-04-24T03:15:43;13.90;99.90
14014;DHT22;49110;52.584;13.408;2023-04-24T03:16:43;13.90;99.90
14014;DHT22;49110;52.584;13.408;2023-04-24T03:17:44;13.90;99.90
14014;DHT22;49110;52.584;13.408;2023-04-24T03:18:45;14.00;99.90
14014;DHT22;49110;52.584;13.408;2023-04-24T03:19:45;14.00;99.90
14014;DHT22;49110;52.584;13.408;2023-04-24T03:20:46;14.00;99.90
14014;DHT22;49110;52.584;13.408;2023-04-24T03:21:47;14.00;99.90
14014;DHT22;49110;52.584;13.408;2023-04-24T03:22:48;14.00;99.90
14014;DHT22;49110;52.584;13.408;2023-04-24T03:23:48;14.00;99.90
14014;DHT22;49110;52.584;13.408;2023-04-24T03:24:49;14.00;99.90
14014;DHT22;49110;52.584;13.408;2023-04-24T03:25:49;14.10;99.90
14014;DHT22;49110;52.584;13.408;2023-04-24T03:26:50;14.10;99.90
14014;DHT22;49110;52.584;13.408;2023-04-24T03:27:50;14.10;99.90
14014;DHT22;49110;52.584;13.408;2023-04-24T03:28:51;14.10;99.90
14014;DHT22;49110;52.584;13.408;2023-04-24T03:29:51;14.10;99.90
14014;DHT22;49110;52.584;13.408;2023-04-24T03:30:55;14.10;99.90
14014;DHT22;49110;52.584;13.408;2023-04-24T03:31:55;14.10;99.90
14014;DHT22;49110;52.584;13.408;2023-04-24T03:32:56;14.10;99.90
14014;DHT22;49110;52.584;13.408;2023-04-24T03:33:56;14.10;99.90
14014;DHT22;49110;52.584;13.408;2023-04-24T03:34:57;14.10;99.90
14014;DHT22;49110;52.584;13.408;2023-04-24T03:35:58;14.20;99.90
14014;DHT22;49110;52.584;13.408;2023-04-24T03:36:58;14.20;99.90
14014;DHT22;49110;52.584;13.408;2023-04-24T03:37:59;14.20;99.90
14014;DHT22;49110;52.584;13.408;2023-04-24T03:38:59;14.20;99.90
14014;DHT22;49110;52.584;13.408;2023-04-24T03:40:00;14.30;99.90
14014;DHT22;49110;52.584;13.408;2023-04-24T03:41:01;14.30;99.90
14014;DHT22;49110;52.584;13.408;2023-04-24T03:42:02;14.30;99.90
14014;DHT22;49110;52.584;13.408;2023-04-24T03:43:03;14.40;99.90
14014;DHT22;49110;52.584;13.408;2023-04-24T03:44:03;14.30;99.90
14014;DHT22;49110;52.584;13.408;2023-04-24T03:45:04;14.30;99.90
14014;DHT22;49110;52.584;13.408;2023-04-24T03:46:05;14.30;99.90
14014;DHT22;49110;52.584;13.408;2023-04-24T03:47:05;14.40;99.90
14014;DHT22;49110;52.584;13.408;2023-04-24T03:48:06;14.30;99.90
14014;DHT22;49110;52.584;13.408;2023-04-24T03:49:07;14.30;99.90
14014;DHT22;49110;52.584;13.408;2023-04-24T03:50:08;14.30;99.90
14014;DHT22;49110;52.584;13.408;2023-04-24T03:51:09;14.30;99.90
14014;DHT22;49110;52.584;13.408;2023-04-24T03:52:09;14.30;99.90
14014;DHT22;49110;52.584;13.408;2023-04-24T03:53:10;14.30;99.90
14014;DHT22;49110;52.584;13.408;2023-04-24T03:54:10;14.30;99.90
14014;DHT22;49110;52.584;13.408;2023-04-24T03:55:11;14.30;99.90
14014;DHT22;49110;52.584;13.408;2023-04-24T03:56:13;14.30;99.90
14014;DHT22;49110;52.584;13.408;2023-04-24T03:57:13;14.30;99.90
14014;DHT22;49110;52.584;13.408;2023-04-24T03:58:14;14.30;99.90
14014;DHT22;49110;52.584;13.408;2023-04-24T03:59:14;14.30;99.90
14014;DHT22;49110;52.584;13.408;2023-04-24T04:00:15;14.30;99.90
14014;DHT22;49110;52.584;13.408;2023-04-24T04:01:16;14.30;99.90
14014;DHT22;49110;52.584;13.408;2023-04-24T04:02:16;14.30;99.90
14014;DHT22;49110;52.584;13.408;2023-04-24T04:03:17;14.30;99.90
14014;DHT22;49110;52.584;13.408;2023-04-24T04:04:17;14.30;99.90
14014;DHT22;49110;52.584;13.408;2023-04-24T04:05:17;14.30;99.90
14014;DHT22;49110;52.584;13.408;2023-04-24T04:06:18;14.30;99.90
14014;DHT22;49110;52.584;13.408;2023-04-24T04:07:19;14.30;99.90
14014;DHT22;49110;52.584;13.408;2023-04-24T04:08:20;14.30;99.90
14014;DHT22;49110;52.584;13.408;2023-04-24T04:09:20;14.30;99.90
14014;DHT22;49110;52.584;13.408;2023-04-24T04:10:21;14.30;99.90
14014;DHT22;49110;52.584;13.408;2023-04-24T04:11:21;14.30;99.90
14014;DHT22;49110;52.584;13.408;2023-04-24T04:12:22;14.30;99.90
14014;DHT22;49110;52.584;13.408;2023-04-24T04:13:22;14.30;99.90
14014;DHT22;49110;52.584;13.408;2023-04-24T04:14:23;14.30;99.90
14014;DHT22;49110;52.584;13.408;2023-04-24T04:15:23;14.30;99.90
14014;DHT22;49110;52.584;13.408;2023-04-24T04:16:24;14.30;99.90
14014;DHT22;49110;52.584;13.408;2023-04-24T04:17:25;14.30;99.90
14014;DHT22;49110;52.584;13.408;2023-04-24T04:18:26;14.30;99.90
14014;DHT22;49110;52.584;13.408;2023-04-24T04:19:26;14.30;99.90
14014;DHT22;49110;52.584;13.408;2023-04-24T04:20:27;14.30;99.90
14014;DHT22;49110;52.584;13.408;2023-04-24T04:21:27;14.30;99.90
14014;DHT22;49110;52.584;13.408;2023-04-24T04:22:28;14.30;99.90
14014;DHT22;49110;52.584;13.408;2023-04-24T04:23:28;14.30;99.90
14014;DHT22;49110;52.584;13.408;2023-04-24T04:24:29;14.40;99.90
14014;DHT22;49110;52.584;13.408;2023-04-24T04:25:29;14.40;99.90
14014;DHT22;49110;52.584;13.408;2023-04-24T04:26:30;14.40;99.90
14014;DHT22;49110;52.584;13.408;2023-04-24T04:27:32;14.40;99.90
14014;DHT22;49110;52.584;13.408;2023-04-24T04:28:33;14.40;99.90
14014;DHT22;49110;52.584;13.408;2023-04-24T04:29:35;14.40;99.90
14014;DHT22;49110;52.584;13.408;2023-04-24T04:30:35;14.40;99.90
14014;DHT22;49110;52.584;13.408;2023-04-24T04:31:38;14.40;99.90
14014;DHT22;49110;52.584;13.408;2023-04-24T04:32:39;14.40;99.90
14014;DHT22;49110;52.584;13.408;2023-04-24T04:33:39;14.50;99.90
14014;DHT22;49110;52.584;13.408;2023-04-24T04:34:40;14.40;99.90
14014;DHT22;49110;52.584;13.408;2023-04-24T04:35:40;14.40;99.90
14014;DHT22;49110;52.584;13.408;2023-04-24T04:36:41;14.40;99.90
14014;DHT22;49110;52.584;13.408;2023-04-24T04:37:43;14.40;99.90
14014;DHT22;49110;52.584;13.408;2023-04-24T04:38:43;14.50;99.90
14014;DHT22;49110;52.584;13.408;2023-04-24T04:39:44;14.50;99.90
14014;DHT22;49110;52.584;13.408;2023-04-24T04:40:45;14.50;99.90
14014;DHT22;49110;52.584;13.408;2023-04-24T04:41:46;14.50;99.90
14014;DHT22;49110;52.584;13.408;2023-04-24T04:42:49;14.40;99.90
14014;DHT22;49110;52.584;13.408;2023-04-24T04:43:52;14.50;99.90
14014;DHT22;49110;52.584;13.408;2023-04-24T04:44:53;14.40;99.90
14014;DHT22;49110;52.584;13.408;2023-04-24T04:45:53;14.40;99.90
14014;DHT22;49110;52.584;13.408;2023-04-24T04:46:56;14.40;99.90
14014;DHT22;49110;52.584;13.408;2023-04-24T04:47:57;14.40;99.90
14014;DHT22;49110;52.584;13.408;2023-04-24T04:48:57;14.40;99.90
14014;DHT22;49110;52.584;13.408;2023-04-24T04:49:58;14.40;99.90
14014;DHT22;49110;52.584;13.408;2023-04-24T04:50:58;14.40;99.90
14014;DHT22;49110;52.584;13.408;2023-04-24T04:51:59;14.50;99.90
14014;DHT22;49110;52.584;13.408;2023-04-24T04:52:59;14.40;99.90
14014;DHT22;49110;52.584;13.408;2023-04-24T04:54:00;14.50;99.90
14014;DHT22;49110;52.584;13.408;2023-04-24T04:55:00;14.60;99.90
14014;DHT22;49110;52.584;13.408;2023-04-24T04:56:01;14.60;99.90
14014;DHT22;49110;52.584;13.408;2023-04-24T04:57:01;14.60;99.90
14014;DHT22;49110;52.584;13.408;2023-04-24T04:58:02;14.60;99.90
14014;DHT22;49110;52.584;13.408;2023-04-24T04:59:02;14.60;99.90
14014;DHT22;49110;52.584;13.408;2023-04-24T05:00:03;14.60;99.90
14014;DHT22;49110;52.584;13.408;2023-04-24T05:01:04;14.60;99.90
14014;DHT22;49110;52.584;13.408;2023-04-24T05:02:05;14.70;99.90
14014;DHT22;49110;52.584;13.408;2023-04-24T05:03:05;14.60;99.90
14014;DHT22;49110;52.584;13.408;2023-04-24T05:04:06;14.70;99.90
14014;DHT22;49110;52.584;13.408;2023-04-24T05:05:07;14.70;99.90
14014;DHT22;49110;52.584;13.408;2023-04-24T05:06:07;14.70;99.90
14014;DHT22;49110;52.584;13.408;2023-04-24T05:07:08;14.70;99.90
14014;DHT22;49110;52.584;13.408;2023-04-24T05:08:08;14.70;99.90
14014;DHT22;49110;52.584;13.408;2023-04-24T05:09:09;14.70;99.90
14014;DHT22;49110;52.584;13.408;2023-04-24T05:10:10;14.70;99.90
14014;DHT22;49110;52.584;13.408;2023-04-24T05:11:10;14.70;99.90
14014;DHT22;49110;52.584;13.408;2023-04-24T05:12:11;14.70;99.90
14014;DHT22;49110;52.584;13.408;2023-04-24T05:13:11;14.70;99.90
14014;DHT22;49110;52.584;13.408;2023-04-24T05:14:12;14.70;99.90
14014;DHT22;49110;52.584;13.408;2023-04-24T05:15:12;14.80;99.90
14014;DHT22;49110;52.584;13.408;2023-04-24T05:16:13;14.80;99.90
14014;DHT22;49110;52.584;13.408;2023-04-24T05:17:13;14.80;99.90
14014;DHT22;49110;52.584;13.408;2023-04-24T05:18:14;14.80;99.90
14014;DHT22;49110;52.584;13.408;2023-04-24T05:19:15;14.80;99.90
14014;DHT22;49110;52.584;13.408;2023-04-24T05:20:16;14.80;99.90
14014;DHT22;49110;52.584;13.408;2023-04-24T05:21:17;14.90;99.90
14014;DHT22;49110;52.584;13.408;2023-04-24T05:22:18;14.90;99.90
14014;DHT22;49110;52.584;13.408;2023-04-24T05:23:21;14.90;99.90
14014;DHT22;49110;52.584;13.408;2023-04-24T05:24:21;14.90;99.90
14014;DHT22;49110;52.584;13.408;2023-04-24T05:25:22;14.90;99.90
14014;DHT22;49110;52.584;13.408;2023-04-24T05:26:22;14.90;99.90
14014;DHT22;49110;52.584;13.408;2023-04-24T05:27:23;14.90;99.90
14014;DHT22;49110;52.584;13.408;2023-04-24T05:28:24;14.90;99.90
14014;DHT22;49110;52.584;13.408;2023-04-24T05:29:28;14.90;99.90
14014;DHT22;49110;52.584;13.408;2023-04-24T05:30:31;14.90;99.90
14014;DHT22;49110;52.584;13.408;2023-04-24T05:31:31;14.90;99.90
14014;DHT22;49110;52.584;13.408;2023-04-24T05:32:32;14.90;99.90
14014;DHT22;49110;52.584;13.408;2023-04-24T05:33:32;14.90;99.90
14014;DHT22;49110;52.584;13.408;2023-04-24T05:34:33;15.00;99.90
14014;DHT22;49110;52.584;13.408;2023-04-24T05:35:33;15.00;99.90
14014;DHT22;49110;52.584;13.408;2023-04-24T05:36:34;15.10;99.90
14014;DHT22;49110;52.584;13.408;2023-04-24T05:37:34;15.10;99.90
14014;DHT22;49110;52.584;13.408;2023-04-24T05:38:35;15.20;99.90
14014;DHT22;49110;52.584;13.408;2023-04-24T05:39:36;15.20;99.90
14014;DHT22;49110;52.584;13.408;2023-04-24T05:40:36;15.10;99.90
14014;DHT22;49110;52.584;13.408;2023-04-24T05:41:37;15.10;99.90
14014;DHT22;49110;52.584;13.408;2023-04-24T05:42:37;15.10;99.90
14014;DHT22;49110;52.584;13.408;2023-04-24T05:43:38;15.10;99.90
14014;DHT22;49110;52.584;13.408;2023-04-24T05:44:38;15.10;99.90
14014;DHT22;49110;52.584;13.408;2023-04-24T05:45:39;15.10;99.90
14014;DHT22;49110;52.584;13.408;2023-04-24T05:46:40;15.10;99.90
14014;DHT22;49110;52.584;13.408;2023-04-24T05:47:40;15.10;99.90
14014;DHT22;49110;52.584;13.408;2023-04-24T05:48:41;15.10;99.90
14014;DHT22;49110;52.584;13.408;2023-04-24T05:49:41;15.20;99.90
14014;DHT22;49110;52.584;13.408;2023-04-24T05:50:42;15.20;99.90
14014;DHT22;49110;52.584;13.408;2023-04-24T05:51:42;15.30;99.90
14014;DHT22;49110;52.584;13.408;2023-04-24T05:52:42;15.30;99.90
14014;DHT22;49110;52.584;13.408;2023-04-24T05:53:43;15.30;99.90
14014;DHT22;49110;52.584;13.408;2023-04-24T05:54:43;15.20;99.90
14014;DHT22;49110;52.584;13.408;2023-04-24T05:55:44;15.30;99.90
14014;DHT22;49110;52.584;13.408;2023-04-24T05:56:45;15.20;99.90
14014;DHT22;49110;52.584;13.408;2023-04-24T05:57:46;15.30;99.90
14014;DHT22;49110;52.584;13.408;2023-04-24T05:58:47;15.20;99.90
14014;DHT22;49110;52.584;13.408;2023-04-24T05:59:47;15.30;99.90
14014;DHT22;49110;52.584;13.408;2023-04-24T06:00:48;15.30;99.90
14014;DHT22;49110;52.584;13.408;2023-04-24T06:01:50;15.30;99.90
14014;DHT22;49110;52.584;13.408;2023-04-24T06:02:50;15.30;99.90
14014;DHT22;49110;52.584;13.408;2023-04-24T06:03:52;15.20;99.90
14014;DHT22;49110;52.584;13.408;2023-04-24T06:04:53;15.30;99.90
14014;DHT22;49110;52.584;13.408;2023-04-24T06:05:54;15.30;99.90
14014;DHT22;49110;52.584;13.408;2023-04-24T06:06:54;15.30;99.90
14014;DHT22;49110;52.584;13.408;2023-04-24T06:07:56;15.30;99.90
14014;DHT22;49110;52.584;13.408;2023-04-24T06:08:56;15.30;99.90
14014;DHT22;49110;52.584;13.408;2023-04-24T06:09:58;15.30;99.90
14014;DHT22;49110;52.584;13.408;2023-04-24T06:10:59;15.20;99.90
14014;DHT22;49110;52.584;13.408;2023-04-24T06:11:59;15.20;99.90
14014;DHT22;49110;52.584;13.408;2023-04-24T06:13:00;15.10;99.90
14014;DHT22;49110;52.584;13.408;2023-04-24T06:14:01;15.10;99.90
14014;DHT22;49110;52.584;13.408;2023-04-24T06:15:02;15.10;99.90
14014;DHT22;49110;52.584;13.408;2023-04-24T06:16:03;15.10;99.90
14014;DHT22;49110;52.584;13.408;2023-04-24T06:17:03;15.20;99.90
14014;DHT22;49110;52.584;13.408;2023-04-24T06:18:04;15.20;99.90